Time;durP1;ratioP1;P1;durP2;ratioP2;P2;SDS_P1;SDS_P2;PMS_P1;PMS_P2;Temp;Humidity;BMP_temperature;BMP_pressure;BME280_temperature;BME280_humidity;BME280_pressure;Samples;Min_cycle;Max_cycle;Signal;HPM_P1;HPM_P2
2022/06/28 00:02:01;;;;;;;4.07;3.67;;;13.20;99.90;;;;;;5058316;28;20048;-77
2022/06/28 00:04:29;;;;;;;7.07;3.70;;;13.30;99.90;;;;;;5056362;28;20029;-76
2022/06/28 00:06:56;;;;;;;4.38;2.90;;;13.30;99.90;;;;;;5039432;28;20041;-76
2022/06/28 00:09:24;;;;;;;4.25;3.50;;;13.30;99.90;;;;;;5054473;28;20107;-77
2022/06/28 00:11:51;;;;;;;4.40;3.00;;;13.20;99.90;;;;;;5040086;28;20044;-76
2022/06/28 00:17:03;;;;;;;4.13;3.45;;;13.20;99.90;;;;;;5041957;28;20032;-76
2022/06/28 00:19:31;;;;;;;6.20;4.40;;;13.20;99.90;;;;;;5057441;28;20178;-77
2022/06/28 00:21:57;;;;;;;10.18;6.22;;;13.10;99.90;;;;;;5058172;28;20028;-76
2022/06/28 00:24:24;;;;;;;11.02;9.13;;;13.10;99.90;;;;;;5059745;28;20472;-77
2022/06/28 00:26:50;;;;;;;14.55;9.35;;;13.10;99.90;;;;;;5043915;28;20036;-76
2022/06/28 00:29:17;;;;;;;10.25;7.88;;;13.10;99.90;;;;;;5058464;28;20028;-76
2022/06/28 00:31:44;;;;;;;6.93;6.22;;;13.10;99.90;;;;;;5042628;28;20020;-76
2022/06/28 00:34:12;;;;;;;9.82;6.95;;;13.10;99.90;;;;;;5057204;28;20032;-76
2022/06/28 00:36:39;;;;;;;7.18;6.47;;;13.10;99.90;;;;;;5058735;28;20490;-77
2022/06/28 00:39:06;;;;;;;5.60;4.93;;;13.10;99.90;;;;;;5039028;28;20068;-77
2022/06/28 00:41:32;;;;;;;5.55;4.30;;;13.10;99.90;;;;;;5041743;28;20491;-77
2022/06/28 00:44:02;;;;;;;5.70;4.10;;;13.10;99.90;;;;;;5026499;28;20040;-76
2022/06/28 00:46:33;;;;;;;4.97;4.18;;;13.10;99.90;;;;;;5057730;28;20053;-78
2022/06/28 00:49:03;;;;;;;5.78;4.70;;;13.00;99.90;;;;;;5063469;28;20495;-78
2022/06/28 00:51:31;;;;;;;8.63;4.72;;;13.00;99.90;;;;;;5062076;28;20488;-77
2022/06/28 00:53:59;;;;;;;6.68;5.07;;;13.00;99.90;;;;;;5030218;28;20044;-77
2022/06/28 00:56:26;;;;;;;8.93;5.20;;;13.10;99.90;;;;;;5044747;28;20049;-77
2022/06/28 00:58:52;;;;;;;6.45;4.57;;;13.00;99.90;;;;;;5027453;28;20045;-80
2022/06/28 01:01:20;;;;;;;4.50;3.65;;;13.00;99.90;;;;;;5011680;28;20034;-79
2022/06/28 01:03:47;;;;;;;6.97;5.30;;;13.00;99.90;;;;;;4999571;28;20420;-80
2022/06/28 01:06:15;;;;;;;7.10;5.32;;;13.00;99.90;;;;;;5015222;28;20033;-77
2022/06/28 01:08:45;;;;;;;6.82;5.72;;;13.00;99.90;;;;;;5014080;28;20029;-78
2022/06/28 01:11:20;;;;;;;5.95;4.63;;;13.00;99.90;;;;;;5013149;28;20032;-78
2022/06/28 01:14:06;;;;;;;5.75;5.25;;;13.00;99.90;;;;;;5026698;28;20028;-77
2022/06/28 01:17:05;;;;;;;4.90;4.32;;;12.90;99.90;;;;;;5033676;28;20033;-80
2022/06/28 01:19:42;;;;;;;5.20;4.70;;;12.90;99.90;;;;;;5017313;28;20056;-80
2022/06/28 01:22:24;;;;;;;6.32;5.50;;;12.80;99.90;;;;;;5026304;28;20024;-80
2022/06/28 01:24:51;;;;;;;6.15;5.47;;;12.80;99.90;;;;;;5006953;28;20021;-80
2022/06/28 01:27:23;;;;;;;5.10;4.57;;;12.80;99.90;;;;;;5008680;28;20423;-80
2022/06/28 01:29:50;;;;;;;5.22;4.70;;;12.80;99.90;;;;;;5039693;28;20476;-80
2022/06/28 01:32:31;;;;;;;8.18;6.18;;;12.70;99.90;;;;;;4997304;28;20049;-80
2022/06/28 01:35:02;;;;;;;6.82;5.20;;;12.70;99.90;;;;;;5037299;28;20025;-80
2022/06/28 01:37:29;;;;;;;7.45;6.63;;;12.70;99.90;;;;;;5033075;28;20045;-80
2022/06/28 01:39:56;;;;;;;9.57;8.18;;;12.70;99.90;;;;;;5037158;28;20037;-80
2022/06/28 01:42:23;;;;;;;8.05;5.63;;;12.80;99.90;;;;;;5025279;28;20480;-80
2022/06/28 01:44:50;;;;;;;5.22;4.72;;;12.70;99.90;;;;;;5011269;28;20364;-79
2022/06/28 01:47:29;;;;;;;7.45;5.50;;;12.70;99.90;;;;;;5013323;28;20566;-80
2022/06/28 01:50:03;;;;;;;7.28;5.30;;;12.60;99.90;;;;;;5042060;28;20029;-80
2022/06/28 01:52:34;;;;;;;5.65;5.15;;;12.60;99.90;;;;;;5024731;28;20389;-80
2022/06/28 01:55:13;;;;;;;4.50;4.10;;;12.70;99.90;;;;;;5026951;28;20024;-80
2022/06/28 01:57:43;;;;;;;8.10;5.13;;;12.60;99.90;;;;;;5009031;28;20033;-80
2022/06/28 02:00:10;;;;;;;9.02;5.47;;;12.50;99.90;;;;;;5011070;28;20041;-80
2022/06/28 02:02:42;;;;;;;;;;;12.50;99.90;;;;;;5027812;28;20033;-80
2022/06/28 02:05:28;;;;;;;4.65;4.15;;;12.50;99.90;;;;;;5043358;28;19916;-80
2022/06/28 02:07:56;;;;;;;5.90;4.88;;;12.40;99.90;;;;;;5008861;28;20056;-80
2022/06/28 02:10:25;;;;;;;5.97;5.35;;;12.40;99.90;;;;;;5009882;28;20151;-80
2022/06/28 02:12:52;;;;;;;5.63;4.70;;;12.40;99.90;;;;;;5026765;28;20025;-80
2022/06/28 02:15:18;;;;;;;5.10;4.60;;;12.40;99.90;;;;;;5013825;28;20044;-80
2022/06/28 02:17:46;;;;;;;5.93;5.35;;;12.40;99.90;;;;;;5023712;28;20052;-78
2022/06/28 02:20:14;;;;;;;4.63;4.10;;;12.30;99.90;;;;;;5017907;28;20043;-78
2022/06/28 02:22:43;;;;;;;6.65;5.95;;;12.30;99.90;;;;;;5016444;28;20408;-77
2022/06/28 02:25:09;;;;;;;6.32;5.72;;;12.30;99.90;;;;;;5010939;28;20033;-77
2022/06/28 02:27:36;;;;;;;9.20;6.80;;;12.30;99.90;;;;;;5027667;28;20357;-77
2022/06/28 02:30:03;;;;;;;7.88;7.13;;;12.30;99.90;;;;;;5010162;28;20507;-77
2022/06/28 02:32:30;;;;;;;7.93;7.07;;;12.30;99.90;;;;;;5008825;28;20920;-78
2022/06/28 02:40:26;;;;;;;7.78;6.93;;;12.30;99.90;;;;;;5020621;28;20035;-77
2022/06/28 02:43:00;;;;;;;6.28;5.25;;;12.30;99.90;;;;;;5024042;28;20484;-78
2022/06/28 02:45:31;;;;;;;5.55;4.82;;;12.20;99.90;;;;;;5041251;28;20025;-77
2022/06/28 02:47:58;;;;;;;5.38;4.85;;;12.20;99.90;;;;;;5027684;28;20483;-78
2022/06/28 02:50:25;;;;;;;5.25;4.75;;;12.20;99.90;;;;;;5008966;28;20029;-78
2022/06/28 02:52:52;;;;;;;6.55;4.78;;;12.10;99.90;;;;;;5041845;28;20017;-78
2022/06/28 02:55:18;;;;;;;7.10;5.22;;;12.10;99.90;;;;;;5043006;28;20578;-77
2022/06/28 02:57:45;;;;;;;6.50;5.90;;;12.00;99.90;;;;;;5011933;28;20396;-77
2022/06/28 03:00:15;;;;;;;8.90;7.45;;;12.00;99.90;;;;;;5008890;28;20045;-78
2022/06/28 03:02:43;;;;;;;7.55;6.85;;;12.00;99.90;;;;;;5019220;28;20051;-78
2022/06/28 03:05:14;;;;;;;9.05;7.50;;;12.00;99.90;;;;;;5038650;28;20040;-77
2022/06/28 03:07:41;;;;;;;12.68;7.30;;;12.00;99.90;;;;;;5023547;28;20025;-78
2022/06/28 03:10:09;;;;;;;5.93;5.43;;;12.00;99.90;;;;;;5024252;28;20036;-78
2022/06/28 03:12:36;;;;;;;6.50;5.85;;;12.00;99.90;;;;;;5025308;28;20032;-78
2022/06/28 03:15:04;;;;;;;7.38;6.57;;;12.00;99.90;;;;;;5025734;28;21041;-78
2022/06/28 03:17:31;;;;;;;8.65;7.13;;;12.00;99.90;;;;;;5036808;28;20042;-78
2022/06/28 03:19:57;;;;;;;8.05;7.25;;;12.00;99.90;;;;;;5007550;28;20024;-77
2022/06/28 03:22:24;;;;;;;6.20;5.60;;;12.00;99.90;;;;;;5036868;28;20052;-78
2022/06/28 03:24:51;;;;;;;5.75;4.90;;;11.90;99.90;;;;;;5009439;28;20037;-77
2022/06/28 03:27:18;;;;;;;6.38;5.78;;;11.90;99.90;;;;;;5009289;28;20041;-78
2022/06/28 03:29:44;;;;;;;5.93;5.32;;;11.90;99.90;;;;;;5008367;28;20040;-80
2022/06/28 03:32:18;;;;;;;10.57;6.43;;;11.90;99.90;;;;;;5026448;28;20060;-80
2022/06/28 03:34:44;;;;;;;5.57;5.05;;;11.80;99.90;;;;;;4994370;28;20143;-80
2022/06/28 03:37:15;;;;;;;5.00;4.53;;;11.80;99.90;;;;;;5008555;28;20040;-80
2022/06/28 03:39:46;;;;;;;5.88;5.30;;;11.80;99.90;;;;;;5007054;28;20084;-78
2022/06/28 03:42:13;;;;;;;6.55;5.82;;;11.90;99.90;;;;;;5009468;28;20143;-78
2022/06/28 03:44:42;;;;;;;6.18;5.57;;;11.90;99.90;;;;;;5011093;28;20037;-78
2022/06/28 03:47:09;;;;;;;7.70;6.95;;;11.90;99.90;;;;;;5005792;28;20041;-78
2022/06/28 03:49:44;;;;;;;8.10;7.30;;;11.90;99.90;;;;;;5026088;28;20045;-78
2022/06/28 03:52:16;;;;;;;6.75;6.05;;;11.90;99.90;;;;;;5011522;28;20055;-78
2022/06/28 03:55:06;;;;;;;7.22;6.35;;;12.00;99.90;;;;;;5028271;28;20032;-78
2022/06/28 03:57:45;;;;;;;6.43;5.82;;;12.00;99.90;;;;;;5026656;28;20053;-78
2022/06/28 04:00:14;;;;;;;6.32;5.45;;;12.00;99.90;;;;;;5008919;28;20040;-78
2022/06/28 04:02:43;;;;;;;7.93;7.13;;;12.00;99.90;;;;;;5008806;28;20484;-78
2022/06/28 04:05:17;;;;;;;7.03;6.43;;;12.00;99.90;;;;;;5008171;28;20029;-78
2022/06/28 04:07:44;;;;;;;8.05;7.25;;;12.00;99.90;;;;;;4996042;28;20386;-78
2022/06/28 04:10:11;;;;;;;7.95;7.00;;;12.10;99.90;;;;;;5026262;28;20488;-80
2022/06/28 04:12:40;;;;;;;7.85;6.80;;;12.10;99.90;;;;;;5011220;28;20052;-80
2022/06/28 04:15:17;;;;;;;9.55;6.38;;;12.20;99.90;;;;;;5009431;28;20056;-80
2022/06/28 04:17:48;;;;;;;9.85;7.80;;;12.20;99.90;;;;;;5026625;28;20057;-80
2022/06/28 04:20:46;;;;;;;7.53;6.70;;;12.20;99.90;;;;;;5031276;28;20480;-80
2022/06/28 04:23:16;;;;;;;7.00;6.13;;;12.30;99.90;;;;;;5044646;28;20037;-80
2022/06/28 04:25:43;;;;;;;6.22;5.68;;;12.30;99.90;;;;;;5031473;28;20033;-80
2022/06/28 04:28:25;;;;;;;6.47;5.60;;;12.40;99.90;;;;;;5032767;28;20485;-80
2022/06/28 04:31:04;;;;;;;8.00;6.15;;;12.50;99.90;;;;;;5014262;28;20037;-79
2022/06/28 04:33:32;;;;;;;7.80;7.00;;;12.50;99.90;;;;;;5044313;28;20045;-80
2022/06/28 04:35:59;;;;;;;8.45;6.88;;;12.70;99.90;;;;;;5016077;28;20408;-78
2022/06/28 04:38:28;;;;;;;7.57;6.88;;;12.70;99.90;;;;;;5029497;28;20033;-77
2022/06/28 04:41:12;;;;;;;7.55;6.00;;;12.80;99.90;;;;;;5029667;28;20074;-78
2022/06/28 04:43:53;;;;;;;7.65;6.90;;;13.00;99.90;;;;;;5033932;28;20042;-78
2022/06/28 04:46:24;;;;;;;8.57;7.45;;;13.10;99.90;;;;;;5016495;28;20492;-78
2022/06/28 04:48:57;;;;;;;5.50;4.93;;;13.20;99.90;;;;;;5001565;28;20044;-77
2022/06/28 04:51:52;;;;;;;14.32;11.10;;;13.40;99.90;;;;;;5022719;28;20080;-78
2022/06/28 04:54:45;;;;;;;8.48;7.60;;;13.50;99.90;;;;;;5018475;28;20388;-78
2022/06/28 04:57:14;;;;;;;8.75;7.78;;;13.70;99.90;;;;;;5016235;28;20037;-78
2022/06/28 04:59:46;;;;;;;7.57;6.73;;;13.90;99.90;;;;;;5030304;28;20045;-79
2022/06/28 05:02:36;;;;;;;7.97;6.13;;;14.10;99.90;;;;;;5032892;28;20435;-81
2022/06/28 05:05:06;;;;;;;5.65;4.90;;;14.20;99.90;;;;;;4981034;28;20523;-80
2022/06/28 05:07:38;;;;;;;7.03;6.32;;;14.40;99.90;;;;;;5038905;28;20099;-78
2022/06/28 05:10:10;;;;;;;7.40;5.93;;;14.60;99.90;;;;;;5026039;28;20025;-76
2022/06/28 05:12:44;;;;;;;7.88;5.30;;;14.70;99.90;;;;;;5040829;28;20040;-75
2022/06/28 05:15:11;;;;;;;8.18;5.43;;;14.80;99.90;;;;;;5042907;28;20017;-77
2022/06/28 05:17:57;;;;;;;7.57;4.75;;;14.90;99.90;;;;;;5027033;28;20464;-75
2022/06/28 05:20:24;;;;;;;6.57;4.90;;;15.10;99.90;;;;;;5024551;28;20380;-77
2022/06/28 05:22:50;;;;;;;8.95;6.03;;;15.30;99.90;;;;;;5039949;28;20032;-77
2022/06/28 05:25:39;;;;;;;8.13;6.07;;;15.40;99.90;;;;;;5027524;28;20033;-79
2022/06/28 05:28:06;;;;;;;4.95;4.03;;;15.50;99.90;;;;;;5025682;28;20392;-80
2022/06/28 05:30:33;;;;;;;6.72;3.92;;;15.60;99.90;;;;;;5022110;28;20025;-81
2022/06/28 05:33:01;;;;;;;5.72;3.78;;;15.70;99.90;;;;;;5024865;28;20040;-80
2022/06/28 05:35:27;;;;;;;6.80;4.28;;;15.80;99.90;;;;;;5027663;28;20377;-81
2022/06/28 05:37:54;;;;;;;5.97;4.07;;;15.90;99.90;;;;;;5011049;28;20067;-82
2022/06/28 05:40:21;;;;;;;5.22;2.78;;;16.00;99.90;;;;;;5008313;28;20052;-77
2022/06/28 05:42:47;;;;;;;4.00;3.17;;;16.20;99.90;;;;;;4996442;28;20504;-81
2022/06/28 05:45:14;;;;;;;3.75;3.28;;;16.30;99.90;;;;;;5012633;28;20040;-80
2022/06/28 05:47:40;;;;;;;5.70;3.15;;;16.50;99.90;;;;;;5026029;28;20033;-82
2022/06/28 05:50:07;;;;;;;6.10;3.45;;;16.50;99.90;;;;;;5006312;28;20048;-78
2022/06/28 05:52:33;;;;;;;9.38;3.72;;;16.60;99.90;;;;;;5024929;28;20036;-78
2022/06/28 05:55:01;;;;;;;8.13;3.10;;;16.70;99.90;;;;;;5023122;28;20044;-80
2022/06/28 05:57:33;;;;;;;5.25;2.85;;;16.80;99.90;;;;;;5023988;28;20479;-80
2022/06/28 06:00:08;;;;;;;7.03;2.85;;;16.90;99.90;;;;;;5039418;28;20380;-79
2022/06/28 06:02:49;;;;;;;6.75;2.88;;;17.20;99.90;;;;;;5027783;28;20031;-80
2022/06/28 06:05:16;;;;;;;;;;;17.50;99.90;;;;;;5008409;28;20528;-79
2022/06/28 06:07:47;;;;;;;6.05;2.28;;;17.90;99.90;;;;;;5042545;28;19917;-79
2022/06/28 06:10:14;;;;;;;7.65;2.70;;;18.20;99.90;;;;;;5021793;28;20021;-77
2022/06/28 06:12:42;;;;;;;4.70;2.40;;;18.30;99.90;;;;;;5023532;28;21944;-77
2022/06/28 06:15:10;;;;;;;6.47;2.75;;;18.40;99.90;;;;;;5039765;28;20023;-77
2022/06/28 06:17:36;;;;;;;6.70;2.17;;;18.50;99.90;;;;;;5057113;28;20029;-79
2022/06/28 06:20:06;;;;;;;5.50;1.90;;;18.50;99.90;;;;;;5022870;28;20033;-79
2022/06/28 06:22:36;;;;;;;7.28;2.28;;;18.60;99.90;;;;;;5020835;28;20307;-79
2022/06/28 06:25:10;;;;;;;6.22;2.50;;;18.80;99.90;;;;;;5033593;28;20036;-79
2022/06/28 06:27:44;;;;;;;;;;;19.00;99.90;;;;;;5027281;28;20032;-79
2022/06/28 06:30:11;;;;;;;8.10;3.00;;;19.40;99.90;;;;;;4998722;28;19920;-79
2022/06/28 06:32:46;;;;;;;6.68;2.55;;;19.60;99.90;;;;;;5039441;28;20499;-79
2022/06/28 06:35:38;;;;;;;10.30;2.78;;;19.70;99.90;;;;;;5013928;28;20526;-79
2022/06/28 06:38:04;;;;;;;8.27;3.42;;;19.80;99.90;;;;;;5033650;28;20060;-79
2022/06/28 06:40:33;;;;;;;5.25;2.13;;;19.70;99.90;;;;;;5000089;28;20388;-79
2022/06/28 06:43:03;;;;;;;6.05;2.03;;;19.60;99.90;;;;;;5037620;28;20345;-79
2022/06/28 06:45:36;;;;;;;9.15;3.67;;;19.50;99.90;;;;;;5040059;28;20036;-79
2022/06/28 06:48:03;;;;;;;9.02;3.00;;;19.50;99.90;;;;;;5025193;28;20384;-78
2022/06/28 06:50:30;;;;;;;7.93;2.72;;;19.50;99.90;;;;;;5019657;28;20377;-78
2022/06/28 06:52:57;;;;;;;17.67;3.80;;;19.50;99.90;;;;;;5038674;28;20036;-78
2022/06/28 06:55:25;;;;;;;5.85;3.22;;;19.50;99.90;;;;;;5007434;28;20029;-78
2022/06/28 06:57:52;;;;;;;10.32;3.05;;;19.50;99.90;;;;;;5004371;28;20598;-79
2022/06/28 07:00:18;;;;;;;8.25;2.90;;;19.60;99.90;;;;;;5035984;28;20530;-78
2022/06/28 07:02:45;;;;;;;9.23;2.88;;;19.60;99.90;;;;;;5038123;28;20024;-78
2022/06/28 07:05:11;;;;;;;13.52;3.30;;;19.70;99.90;;;;;;5024098;28;20032;-78
2022/06/28 07:07:39;;;;;;;7.45;2.80;;;19.70;99.90;;;;;;5006708;28;20488;-79
2022/06/28 07:10:06;;;;;;;6.88;2.40;;;19.70;99.90;;;;;;5050656;28;22429;-78
2022/06/28 07:12:33;;;;;;;9.10;3.00;;;19.70;99.90;;;;;;5024784;28;20036;-78
2022/06/28 07:14:59;;;;;;;10.85;2.35;;;19.80;99.90;;;;;;5023680;28;20036;-78
2022/06/28 07:17:33;;;;;;;7.75;2.05;;;19.90;99.90;;;;;;5039356;28;20395;-78
2022/06/28 07:20:00;;;;;;;11.30;3.05;;;20.00;99.90;;;;;;5004510;28;20048;-78
2022/06/28 07:22:26;;;;;;;11.25;3.17;;;20.10;99.90;;;;;;5020752;28;20376;-78
2022/06/28 07:24:56;;;;;;;10.07;2.88;;;20.20;99.90;;;;;;5021744;28;20048;-78
2022/06/28 07:27:24;;;;;;;11.75;3.20;;;20.30;99.90;;;;;;5008389;28;20445;-78
2022/06/28 07:29:50;;;;;;;7.47;2.22;;;20.40;99.90;;;;;;5022540;28;20060;-78
2022/06/28 07:32:17;;;;;;;9.27;3.42;;;20.50;99.90;;;;;;5021688;28;20025;-78
2022/06/28 07:34:44;;;;;;;12.77;2.33;;;20.40;99.90;;;;;;5037746;28;20025;-78
2022/06/28 07:37:10;;;;;;;10.65;2.33;;;20.50;99.90;;;;;;5025827;28;20040;-78
2022/06/28 07:39:43;;;;;;;14.80;2.80;;;20.60;99.90;;;;;;5038093;28;20484;-78
2022/06/28 07:42:41;;;;;;;9.13;1.90;;;20.80;99.90;;;;;;5039271;28;20044;-78
2022/06/28 07:45:17;;;;;;;9.05;1.60;;;20.80;99.90;;;;;;5009422;28;20021;-78
2022/06/28 07:47:47;;;;;;;7.82;1.75;;;20.90;99.90;;;;;;5039676;28;20021;-78
2022/06/28 07:53:03;;;;;;;9.65;1.95;;;20.80;99.90;;;;;;5038382;28;20033;-79
2022/06/28 07:55:45;;;;;;;6.78;1.65;;;20.80;99.90;;;;;;5038248;28;20032;-79
2022/06/28 07:58:26;;;;;;;6.22;1.00;;;20.90;99.90;;;;;;5040639;28;20018;-79
2022/06/28 08:00:53;;;;;;;9.40;1.40;;;21.00;99.90;;;;;;5007963;28;20037;-78
2022/06/28 08:03:19;;;;;;;6.90;1.05;;;20.90;99.90;;;;;;5010509;28;20021;-78
2022/06/28 08:05:46;;;;;;;9.55;1.23;;;21.00;99.90;;;;;;5026126;28;20043;-79
2022/06/28 08:08:13;;;;;;;8.35;1.85;;;21.10;99.90;;;;;;5026223;28;20044;-79
2022/06/28 08:10:44;;;;;;;6.13;0.90;;;21.20;99.90;;;;;;5008884;28;20045;-79
2022/06/28 08:13:16;;;;;;;6.15;1.10;;;21.30;99.90;;;;;;5040714;28;20039;-79
2022/06/28 08:15:47;;;;;;;5.60;0.77;;;21.40;99.90;;;;;;5009880;28;20025;-79
2022/06/28 08:18:14;;;;;;;6.03;0.93;;;21.50;99.90;;;;;;5008769;28;20033;-79
2022/06/28 08:20:41;;;;;;;8.20;1.08;;;21.70;99.90;;;;;;5041436;28;20411;-80
2022/06/28 08:23:19;;;;;;;5.70;0.77;;;21.80;99.90;;;;;;5023828;28;20017;-78
2022/06/28 08:25:47;;;;;;;6.07;1.00;;;21.90;99.90;;;;;;5025069;28;20045;-78
2022/06/28 08:28:14;;;;;;;5.60;0.88;;;22.00;99.90;;;;;;5041981;28;20049;-79
2022/06/28 08:30:47;;;;;;;9.63;1.02;;;22.20;99.90;;;;;;5025133;28;20356;-79
2022/06/28 08:33:13;;;;;;;6.57;1.10;;;22.20;99.90;;;;;;5021013;28;21081;-80
2022/06/28 08:35:40;;;;;;;8.85;2.13;;;22.20;99.90;;;;;;5035804;28;20021;-79
2022/06/28 08:38:14;;;;;;;6.00;1.23;;;22.30;99.90;;;;;;5042879;28;20053;-79
2022/06/28 08:40:42;;;;;;;6.55;1.00;;;22.30;99.90;;;;;;5004443;28;20037;-79
2022/06/28 08:43:09;;;;;;;4.15;0.88;;;22.30;99.90;;;;;;5007641;28;20036;-79
2022/06/28 08:45:39;;;;;;;5.43;0.68;;;22.50;99.90;;;;;;5041205;28;20021;-79
2022/06/28 08:48:23;;;;;;;3.35;0.70;;;22.50;99.90;;;;;;5025451;28;20029;-79
2022/06/28 08:50:56;;;;;;;2.50;0.55;;;22.60;99.90;;;;;;5040048;28;20416;-79
2022/06/28 08:53:27;;;;;;;6.80;0.75;;;22.70;99.90;;;;;;5041426;28;20702;-77
2022/06/28 08:55:54;;;;;;;4.47;0.70;;;22.80;99.90;;;;;;5040336;28;20392;-78
2022/06/28 08:58:21;;;;;;;5.40;1.02;;;22.90;99.90;;;;;;5037239;28;20021;-78
2022/06/28 09:00:50;;;;;;;6.65;1.20;;;23.00;99.90;;;;;;5024663;28;20048;-78
2022/06/28 09:03:19;;;;;;;6.50;1.10;;;23.10;99.90;;;;;;5040952;28;20025;-77
2022/06/28 09:05:48;;;;;;;5.88;0.70;;;23.10;99.90;;;;;;5022750;28;20025;-77
2022/06/28 09:08:14;;;;;;;3.05;0.70;;;23.00;99.90;;;;;;5023951;28;20021;-77
2022/06/28 09:10:43;;;;;;;3.95;0.63;;;23.00;99.90;;;;;;5020074;28;20088;-77
2022/06/28 09:13:12;;;;;;;3.28;0.50;;;23.10;99.90;;;;;;5041498;28;20021;-77
2022/06/28 09:16:05;;;;;;;2.92;0.60;;;23.20;99.90;;;;;;5041719;28;20021;-77
2022/06/28 09:18:34;;;;;;;2.95;0.60;;;23.40;99.90;;;;;;5049909;28;20045;-77
2022/06/28 09:21:04;;;;;;;3.83;0.90;;;23.60;99.90;;;;;;5041700;28;20017;-77
2022/06/28 09:23:36;;;;;;;4.68;0.90;;;23.70;99.90;;;;;;5040292;28;20025;-77
2022/06/28 09:26:11;;;;;;;3.72;0.70;;;23.80;99.90;;;;;;5051471;28;20025;-77
2022/06/28 09:28:43;;;;;;;4.93;0.73;;;23.80;99.90;;;;;;5041599;28;20040;-77
2022/06/28 09:31:13;;;;;;;;;;;23.90;99.90;;;;;;5043712;28;20376;-77
2022/06/28 09:33:40;;;;;;;2.05;0.50;;;24.00;99.90;;;;;;5039697;28;19927;-76
2022/06/28 09:36:11;;;;;;;4.10;0.80;;;24.10;99.30;;;;;;5042020;28;20033;-77
2022/06/28 09:38:38;;;;;;;2.80;0.50;;;24.10;97.60;;;;;;5039341;28;20352;-76
2022/06/28 09:41:05;;;;;;;3.72;0.50;;;24.00;98.00;;;;;;5021954;28;20396;-77
2022/06/28 09:43:35;;;;;;;2.60;0.30;;;24.00;97.80;;;;;;5026356;28;20036;-77
2022/06/28 09:46:03;;;;;;;2.58;0.50;;;24.20;97.90;;;;;;5024254;28;20049;-77
2022/06/28 09:48:37;;;;;;;3.55;0.50;;;24.30;97.60;;;;;;5039905;28;20401;-77
2022/06/28 09:51:06;;;;;;;2.20;0.50;;;24.40;96.60;;;;;;5039322;28;20037;-76
2022/06/28 09:53:42;;;;;;;3.72;0.50;;;24.40;95.60;;;;;;5008437;28;20040;-76
2022/06/28 09:56:12;;;;;;;2.20;0.40;;;24.50;95.30;;;;;;5041151;28;20033;-77
2022/06/28 09:58:41;;;;;;;1.52;0.30;;;24.50;95.00;;;;;;5021626;28;20479;-77
2022/06/28 10:01:08;;;;;;;2.08;0.40;;;24.60;94.90;;;;;;5041689;28;20032;-77
2022/06/28 10:03:40;;;;;;;2.88;0.63;;;24.70;94.60;;;;;;5025741;28;20040;-77
2022/06/28 10:06:24;;;;;;;3.90;0.50;;;24.80;94.00;;;;;;5038115;28;20025;-77
2022/06/28 10:08:53;;;;;;;2.65;0.40;;;24.90;94.30;;;;;;5037025;28;20175;-76
2022/06/28 10:11:21;;;;;;;2.47;0.60;;;25.00;93.10;;;;;;5039315;28;20063;-77
2022/06/28 10:16:48;;;;;;;2.50;0.40;;;25.10;91.50;;;;;;5038994;28;20380;-77
2022/06/28 10:19:21;;;;;;;1.50;0.45;;;25.10;91.30;;;;;;5018793;28;20033;-77
2022/06/28 10:22:07;;;;;;;2.30;0.50;;;25.10;90.20;;;;;;5038110;28;20036;-77
2022/06/28 10:25:00;;;;;;;2.05;0.43;;;25.10;89.80;;;;;;5038065;28;20048;-77
2022/06/28 10:27:28;;;;;;;2.50;0.75;;;25.10;88.60;;;;;;5042365;28;20013;-77
2022/06/28 10:30:13;;;;;;;3.42;0.40;;;25.10;88.30;;;;;;5044003;28;20033;-78
2022/06/28 10:32:51;;;;;;;3.38;0.75;;;25.30;89.00;;;;;;5052476;28;20040;-77
2022/06/28 10:35:36;;;;;;;2.00;0.40;;;25.50;87.90;;;;;;5050167;28;20029;-74
2022/06/28 10:38:08;;;;;;;2.15;0.50;;;25.60;85.90;;;;;;5039354;28;20467;-74
2022/06/28 10:40:53;;;;;;;2.42;0.40;;;25.70;85.60;;;;;;5020893;28;20037;-75
2022/06/28 10:43:26;;;;;;;1.85;0.40;;;25.90;85.10;;;;;;5045807;28;20029;-74
2022/06/28 10:46:10;;;;;;;2.30;0.30;;;26.10;85.30;;;;;;5047812;28;20025;-75
2022/06/28 10:49:01;;;;;;;3.03;0.50;;;26.40;85.30;;;;;;5020289;28;20039;-75
2022/06/28 10:51:27;;;;;;;3.55;0.40;;;26.70;83.90;;;;;;5038960;28;20017;-75
2022/06/28 10:53:57;;;;;;;1.67;0.30;;;26.90;81.30;;;;;;5038597;28;20025;-75
2022/06/28 10:56:27;;;;;;;1.38;0.30;;;26.90;81.20;;;;;;5038620;28;20353;-74
2022/06/28 10:58:58;;;;;;;1.25;0.30;;;27.00;80.20;;;;;;5053795;28;20033;-75
2022/06/28 11:01:39;;;;;;;3.47;0.60;;;27.20;79.90;;;;;;5038511;28;20040;-75
2022/06/28 11:04:11;;;;;;;1.00;0.40;;;27.50;79.60;;;;;;5038508;28;20036;-74
2022/06/28 11:06:42;;;;;;;1.38;0.30;;;27.90;78.40;;;;;;5022829;28;20475;-75
2022/06/28 11:09:43;;;;;;;1.88;0.40;;;28.00;75.40;;;;;;5037474;28;20017;-75
2022/06/28 11:12:16;;;;;;;2.25;0.40;;;28.30;76.30;;;;;;5036328;28;20380;-75
2022/06/28 11:14:47;;;;;;;3.17;0.47;;;28.60;73.70;;;;;;5038574;28;20029;-75
2022/06/28 11:17:22;;;;;;;3.70;0.45;;;28.80;72.10;;;;;;5039314;28;20029;-75
2022/06/28 11:19:51;;;;;;;1.10;0.38;;;28.90;72.70;;;;;;5038589;28;20032;-75
2022/06/28 11:22:31;;;;;;;2.10;0.60;;;29.20;71.20;;;;;;5039875;28;20407;-76
2022/06/28 11:25:03;;;;;;;1.40;0.40;;;29.60;70.40;;;;;;5039620;28;20024;-76
2022/06/28 11:27:31;;;;;;;1.50;0.35;;;29.80;68.90;;;;;;5038490;28;20021;-75
2022/06/28 11:30:00;;;;;;;2.43;0.43;;;30.00;69.20;;;;;;5022542;28;20034;-75
2022/06/28 11:32:32;;;;;;;1.63;0.30;;;30.40;67.90;;;;;;5040724;28;20039;-76
2022/06/28 11:35:05;;;;;;;2.72;0.40;;;30.70;67.70;;;;;;5036510;28;20024;-75
2022/06/28 11:37:51;;;;;;;2.30;0.40;;;31.00;66.80;;;;;;5037916;28;20029;-75
2022/06/28 11:40:20;;;;;;;1.50;0.30;;;31.30;64.10;;;;;;5034916;28;20037;-75
2022/06/28 11:42:59;;;;;;;1.90;0.32;;;31.50;64.80;;;;;;5037173;28;20041;-74
2022/06/28 11:45:29;;;;;;;2.40;0.30;;;31.70;63.80;;;;;;5033302;28;20017;-75
2022/06/28 11:48:10;;;;;;;1.38;0.38;;;32.00;64.00;;;;;;5039384;28;20475;-75
2022/06/28 11:50:49;;;;;;;2.28;0.50;;;32.40;62.40;;;;;;5037237;28;20041;-75
2022/06/28 11:53:16;;;;;;;2.92;0.40;;;32.70;60.60;;;;;;5038497;28;20029;-75
2022/06/28 11:55:54;;;;;;;2.20;0.30;;;33.00;60.40;;;;;;5023352;28;20463;-75
2022/06/28 11:58:31;;;;;;;1.27;0.30;;;33.30;59.00;;;;;;5039604;28;20025;-75
2022/06/28 12:01:09;;;;;;;2.55;0.40;;;33.50;57.50;;;;;;5036824;28;20040;-74
2022/06/28 12:03:41;;;;;;;1.63;0.32;;;33.70;57.20;;;;;;5029915;28;20056;-74
2022/06/28 12:06:23;;;;;;;2.67;0.38;;;33.70;56.00;;;;;;5021878;28;20013;-74
2022/06/28 12:08:52;;;;;;;1.92;0.30;;;33.70;55.10;;;;;;5035558;28;20025;-74
2022/06/28 12:11:40;;;;;;;1.55;0.30;;;33.80;54.70;;;;;;5036463;28;20025;-74
2022/06/28 12:14:12;;;;;;;2.17;0.50;;;33.70;53.60;;;;;;5036365;28;20491;-74
2022/06/28 12:16:43;;;;;;;3.80;0.50;;;32.80;53.60;;;;;;5038626;28;20377;-74
2022/06/28 12:19:18;;;;;;;1.42;0.30;;;32.30;55.10;;;;;;5034356;28;20021;-74
2022/06/28 12:22:06;;;;;;;1.33;0.30;;;32.40;54.30;;;;;;5020439;28;20033;-75
2022/06/28 12:25:08;;;;;;;2.22;0.40;;;33.00;55.10;;;;;;5039261;28;20512;-74
2022/06/28 12:27:40;;;;;;;1.73;0.40;;;33.70;52.80;;;;;;5048238;28;20088;-75
2022/06/28 12:30:14;;;;;;;1.83;0.30;;;34.20;53.90;;;;;;5036107;28;20022;-75
2022/06/28 12:32:43;;;;;;;2.95;0.52;;;34.70;53.00;;;;;;5035798;28;20025;-75
2022/06/28 12:35:10;;;;;;;2.40;0.30;;;35.20;52.20;;;;;;5039569;28;20469;-75
2022/06/28 12:37:39;;;;;;;1.50;0.30;;;35.40;51.50;;;;;;5039776;28;21197;-75
2022/06/28 12:40:07;;;;;;;1.90;0.30;;;35.50;50.40;;;;;;5038368;28;20062;-75
2022/06/28 12:42:37;;;;;;;1.70;0.40;;;35.80;50.00;;;;;;5021536;28;20030;-76
2022/06/28 12:45:05;;;;;;;4.38;0.70;;;36.10;50.20;;;;;;5020721;28;20021;-75
2022/06/28 12:47:36;;;;;;;2.08;0.40;;;36.40;48.60;;;;;;5024046;28;20036;-75
2022/06/28 12:50:10;;;;;;;1.63;0.30;;;36.50;47.50;;;;;;5039122;28;20170;-75
2022/06/28 12:52:38;;;;;;;2.92;0.30;;;36.30;46.80;;;;;;5040807;28;20101;-76
2022/06/28 12:55:05;;;;;;;1.27;0.40;;;35.30;46.90;;;;;;5041094;28;20025;-76
2022/06/28 12:57:31;;;;;;;2.40;0.50;;;34.00;47.60;;;;;;5024332;28;20387;-76
2022/06/28 12:59:58;;;;;;;2.40;0.30;;;32.80;50.10;;;;;;5038314;28;20047;-75
2022/06/28 13:02:25;;;;;;;1.40;0.38;;;32.20;51.30;;;;;;5050039;28;20472;-75
2022/06/28 13:04:51;;;;;;;1.65;0.30;;;31.90;52.00;;;;;;5009144;28;20386;-75
2022/06/28 13:07:22;;;;;;;2.20;0.40;;;31.80;51.80;;;;;;5030920;28;20021;-76
2022/06/28 13:09:48;;;;;;;3.28;0.50;;;31.50;52.70;;;;;;5040982;28;20029;-76
2022/06/28 13:12:15;;;;;;;1.63;0.40;;;32.10;53.50;;;;;;5041756;28;20689;-75
2022/06/28 13:14:42;;;;;;;4.05;0.50;;;33.50;51.70;;;;;;5041417;28;20024;-77
2022/06/28 13:17:08;;;;;;;1.70;0.40;;;34.60;50.00;;;;;;5043098;28;20024;-77
2022/06/28 13:19:35;;;;;;;2.15;0.50;;;34.70;49.20;;;;;;5037837;28;20025;-76
2022/06/28 13:22:01;;;;;;;2.78;0.43;;;34.80;49.20;;;;;;5041303;28;20025;-76
2022/06/28 13:24:28;;;;;;;3.80;1.08;;;34.30;48.00;;;;;;5024969;28;20377;-76